Time;durP1;ratioP1;P1;durP2;ratioP2;P2;SDS_P1;SDS_P2;PMS_P1;PMS_P2;Temp;Humidity;BMP_temperature;BMP_pressure;BME280_temperature;BME280_humidity;BME280_pressure;Samples;Min_cycle;Max_cycle;Signal;HPM_P1;HPM_P2
2022/09/28 00:01:26;;;;;;;;;;;25.40;99.90;;;;;;5050968;28;19919;-55
2022/09/28 00:03:57;;;;;;;;;;;25.30;99.90;;;;;;5049105;28;19905;-54
2022/09/28 00:06:23;;;;;;;;;;;25.30;99.90;;;;;;5051483;28;20363;-54
2022/09/28 00:08:49;;;;;;;;;;;25.20;99.90;;;;;;5051144;28;19905;-55
2022/09/28 00:11:17;;;;;;;;;;;25.20;99.90;;;;;;5049916;28;19905;-54
2022/09/28 00:13:44;;;;;;;;;;;25.10;99.90;;;;;;5049770;28;20003;-54
2022/09/28 00:16:15;;;;;;;;;;;25.10;99.90;;;;;;5048996;28;19966;-55
2022/09/28 00:18:42;;;;;;;;;;;25.10;99.90;;;;;;5051536;28;19940;-55
2022/09/28 00:21:08;;;;;;;;;;;25.10;99.90;;;;;;5051003;28;19913;-54
2022/09/28 00:23:34;;;;;;;;;;;25.00;99.90;;;;;;5048468;28;19987;-55
2022/09/28 00:26:04;;;;;;;;;;;25.00;99.90;;;;;;5051051;28;19950;-55
2022/09/28 00:28:30;;;;;;;;;;;25.00;99.90;;;;;;5050930;28;19905;-56
2022/09/28 00:30:56;;;;;;;;;;;24.90;99.90;;;;;;5046600;28;19948;-55
2022/09/28 00:33:21;;;;;;;;;;;25.00;99.90;;;;;;5049313;28;19912;-55
2022/09/28 00:35:57;;;;;;;;;;;25.00;99.90;;;;;;5050976;28;19908;-55
2022/09/28 00:38:26;;;;;;;;;;;24.90;99.90;;;;;;5047635;28;20296;-54
2022/09/28 00:40:52;;;;;;;;;;;24.90;99.90;;;;;;5048674;28;19919;-54
2022/09/28 00:43:18;;;;;;;;;;;24.90;99.90;;;;;;5050506;28;19995;-55
2022/09/28 00:45:44;;;;;;;;;;;24.80;99.90;;;;;;5049705;28;19935;-55
2022/09/28 00:48:10;;;;;;;;;;;24.80;99.90;;;;;;5050532;28;20416;-54
2022/09/28 00:50:36;;;;;;;;;;;24.80;99.90;;;;;;5049914;28;19913;-55
2022/09/28 00:53:10;;;;;;;;;;;24.80;99.90;;;;;;5050150;28;19916;-54
2022/09/28 00:55:38;;;;;;;;;;;24.80;99.90;;;;;;5050352;28;19904;-54
2022/09/28 00:58:06;;;;;;;;;;;24.80;99.90;;;;;;5050379;28;19905;-55
2022/09/28 01:00:31;;;;;;;;;;;24.80;99.90;;;;;;5026645;22;20370;-57
2022/09/28 01:02:58;;;;;;;;;;;24.70;99.90;;;;;;4991701;28;19905;-57
2022/09/28 01:05:24;;;;;;;;;;;24.70;99.90;;;;;;4993425;28;20440;-58
2022/09/28 01:07:50;;;;;;;;;;;24.60;99.90;;;;;;4992269;28;19929;-57
2022/09/28 01:10:16;;;;;;;;;;;24.60;99.90;;;;;;4992348;28;20346;-57
2022/09/28 01:12:41;;;;;;;;;;;24.60;99.90;;;;;;4992279;28;19906;-57
2022/09/28 01:15:07;;;;;;;;;;;24.50;99.90;;;;;;4992390;28;19905;-58
2022/09/28 01:17:38;;;;;;;;;;;24.50;99.90;;;;;;4999932;28;19996;-58
2022/09/28 01:20:08;;;;;;;;;;;24.50;99.90;;;;;;5008280;28;19917;-57
2022/09/28 01:22:34;;;;;;;;;;;24.40;99.90;;;;;;5008398;28;19912;-57
2022/09/28 01:25:09;;;;;;;;;;;24.40;99.90;;;;;;5008941;28;19906;-57
2022/09/28 01:27:40;;;;;;;;;;;24.40;99.90;;;;;;5008689;28;19905;-58
2022/09/28 01:30:24;;;;;;;;;;;24.40;99.90;;;;;;5008108;28;20068;-58
2022/09/28 01:32:54;;;;;;;;;;;24.40;99.90;;;;;;5008558;28;19905;-58
2022/09/28 01:35:33;;;;;;;;;;;24.40;99.90;;;;;;5008218;28;19905;-57
2022/09/28 01:38:05;;;;;;;;;;;24.30;99.90;;;;;;5008161;28;20277;-57
2022/09/28 01:40:31;;;;;;;;;;;24.30;99.90;;;;;;4993677;28;19918;-58
2022/09/28 01:43:01;;;;;;;;;;;24.30;99.90;;;;;;4991475;28;19906;-56
2022/09/28 01:45:29;;;;;;;;;;;24.30;99.90;;;;;;4993814;28;19910;-56
2022/09/28 01:47:58;;;;;;;;;;;24.30;99.90;;;;;;4990854;28;20281;-56
2022/09/28 01:50:25;;;;;;;;;;;24.30;99.90;;;;;;4985897;28;19965;-52
2022/09/28 01:52:54;;;;;;;;;;;24.30;99.90;;;;;;4972564;28;19906;-53
2022/09/28 01:55:31;;;;;;;;;;;24.30;99.90;;;;;;4987787;28;19906;-57
2022/09/28 01:58:07;;;;;;;;;;;24.40;99.90;;;;;;4981155;28;20008;-51
2022/09/28 02:00:34;;;;;;;;;;;24.40;99.90;;;;;;4990062;28;19925;-54
2022/09/28 02:03:20;;;;;;;;;;;24.30;99.90;;;;;;4992253;28;19906;-51
2022/09/28 02:05:55;;;;;;;;;;;24.30;99.90;;;;;;4991750;28;19909;-51
2022/09/28 02:08:20;;;;;;;;;;;24.30;99.90;;;;;;4992111;28;20342;-52
2022/09/28 02:10:51;;;;;;;;;;;24.30;99.90;;;;;;4992317;28;19906;-52
2022/09/28 02:13:23;;;;;;;;;;;24.30;99.90;;;;;;4985198;28;20008;-51
2022/09/28 02:15:49;;;;;;;;;;;24.30;99.90;;;;;;4992208;28;20424;-50
2022/09/28 02:18:15;;;;;;;;;;;24.40;99.90;;;;;;4987770;28;19906;-53
2022/09/28 02:20:42;;;;;;;;;;;24.40;99.90;;;;;;4988276;28;19949;-52
2022/09/28 02:23:09;;;;;;;;;;;24.40;99.90;;;;;;4992090;28;20273;-50
2022/09/28 02:25:48;;;;;;;;;;;24.30;99.90;;;;;;4992106;28;19913;-55
2022/09/28 02:28:14;;;;;;;;;;;24.40;99.90;;;;;;4991592;28;19913;-54
2022/09/28 02:30:41;;;;;;;;;;;24.40;99.90;;;;;;4986134;28;20301;-56
2022/09/28 02:33:17;;;;;;;;;;;24.40;99.90;;;;;;4980658;28;19921;-56
2022/09/28 02:35:43;;;;;;;;;;;24.40;99.90;;;;;;4991775;28;19905;-56
2022/09/28 02:38:09;;;;;;;;;;;24.50;99.90;;;;;;4982245;28;19996;-55
2022/09/28 02:40:36;;;;;;;;;;;24.50;99.90;;;;;;4979167;28;19925;-55
2022/09/28 02:43:17;;;;;;;;;;;24.50;99.90;;;;;;4984651;28;20493;-56
2022/09/28 02:46:00;;;;;;;;;;;24.50;99.90;;;;;;4991411;28;19961;-56
2022/09/28 02:48:26;;;;;;;;;;;24.50;99.90;;;;;;4991348;28;19952;-55
2022/09/28 02:51:01;;;;;;;;;;;24.50;99.90;;;;;;4991422;28;20358;-55
2022/09/28 02:53:45;;;;;;;;;;;24.50;99.90;;;;;;4991529;28;19909;-55
2022/09/28 02:56:10;;;;;;;;;;;24.50;99.90;;;;;;4994507;28;20001;-54
2022/09/28 02:58:38;;;;;;;;;;;24.50;99.90;;;;;;4995174;28;20000;-60
2022/09/28 03:01:13;;;;;;;;;;;24.50;99.90;;;;;;5005726;23;19922;-53
2022/09/28 03:03:58;;;;;;;;;;;24.40;99.90;;;;;;4994694;28;19937;-53
2022/09/28 03:06:46;;;;;;;;;;;24.50;99.90;;;;;;4993692;28;19912;-54
2022/09/28 03:09:15;;;;;;;;;;;24.40;99.90;;;;;;4997506;28;20250;-54
2022/09/28 03:12:01;;;;;;;;;;;24.40;99.90;;;;;;4995479;28;19951;-54
2022/09/28 03:14:26;;;;;;;;;;;24.50;99.90;;;;;;4995078;28;20009;-54
2022/09/28 03:16:52;;;;;;;;;;;24.40;99.90;;;;;;4995505;28;19949;-54
2022/09/28 03:19:20;;;;;;;;;;;24.40;99.90;;;;;;4995257;28;19906;-54
2022/09/28 03:21:45;;;;;;;;;;;24.40;99.90;;;;;;4995075;28;20000;-54
2022/09/28 03:24:11;;;;;;;;;;;24.40;99.90;;;;;;4994959;28;19986;-54
2022/09/28 03:26:38;;;;;;;;;;;24.40;99.90;;;;;;4995017;28;19902;-54
2022/09/28 03:29:03;;;;;;;;;;;24.40;99.90;;;;;;4995095;28;19906;-54
2022/09/28 03:31:29;;;;;;;;;;;24.30;99.90;;;;;;4994983;28;20431;-55
2022/09/28 03:33:54;;;;;;;;;;;24.40;99.90;;;;;;4994900;28;19909;-55
2022/09/28 03:36:20;;;;;;;;;;;24.40;99.90;;;;;;4995144;28;19906;-54
2022/09/28 03:38:46;;;;;;;;;;;24.30;99.90;;;;;;4994816;28;19910;-55
2022/09/28 03:41:12;;;;;;;;;;;24.40;99.90;;;;;;4993347;28;19941;-54
2022/09/28 03:43:37;;;;;;;;;;;24.40;99.90;;;;;;4994886;28;19905;-55
2022/09/28 03:46:03;;;;;;;;;;;24.40;99.90;;;;;;4994655;28;20042;-55
2022/09/28 03:48:30;;;;;;;;;;;24.40;99.90;;;;;;4994669;28;19905;-56
2022/09/28 03:50:57;;;;;;;;;;;24.50;99.90;;;;;;4994639;28;19913;-56
2022/09/28 03:53:22;;;;;;;;;;;24.50;99.90;;;;;;4994637;28;19917;-56
2022/09/28 03:55:49;;;;;;;;;;;24.50;99.90;;;;;;4994506;28;19906;-54
2022/09/28 03:58:15;;;;;;;;;;;24.50;99.90;;;;;;4994656;28;20005;-54
2022/09/28 04:00:41;;;;;;;;;;;24.50;99.90;;;;;;4995226;23;19905;-57
2022/09/28 04:03:07;;;;;;;;;;;24.50;99.90;;;;;;4975088;28;20294;-56
2022/09/28 04:05:33;;;;;;;;;;;24.50;99.90;;;;;;4974410;28;19906;-56
2022/09/28 04:07:58;;;;;;;;;;;24.50;99.90;;;;;;4974918;28;19961;-56
2022/09/28 04:10:24;;;;;;;;;;;24.40;99.90;;;;;;4975018;28;19934;-56
2022/09/28 04:12:53;;;;;;;;;;;24.30;99.90;;;;;;4974930;28;19965;-57
2022/09/28 04:15:19;;;;;;;;;;;24.30;99.90;;;;;;4974706;28;19929;-56
2022/09/28 04:17:44;;;;;;;;;;;24.20;99.90;;;;;;4974689;28;19910;-55
2022/09/28 04:20:10;;;;;;;;;;;24.20;99.90;;;;;;4973354;28;19926;-56
2022/09/28 04:22:38;;;;;;;;;;;24.10;99.90;;;;;;4974540;28;20333;-55
2022/09/28 04:25:05;;;;;;;;;;;24.10;99.90;;;;;;4974660;28;19906;-56
2022/09/28 04:30:15;;;;;;;;;;;24.10;99.90;;;;;;4974705;28;19937;-56
2022/09/28 04:32:41;;;;;;;;;;;24.10;99.90;;;;;;4974424;28;20001;-56
2022/09/28 04:35:08;;;;;;;;;;;24.00;99.90;;;;;;4974414;28;20392;-56
2022/09/28 04:37:33;;;;;;;;;;;24.10;99.90;;;;;;4974406;28;19960;-57
2022/09/28 04:39:59;;;;;;;;;;;24.10;99.90;;;;;;4974152;28;19914;-57
2022/09/28 04:42:25;;;;;;;;;;;24.10;99.90;;;;;;4974497;28;20301;-57
2022/09/28 04:44:50;;;;;;;;;;;24.10;99.90;;;;;;4974205;28;19933;-56
2022/09/28 04:47:16;;;;;;;;;;;24.10;99.90;;;;;;4974167;28;19976;-55
2022/09/28 04:49:41;;;;;;;;;;;24.10;99.90;;;;;;4974157;28;19913;-56
2022/09/28 04:52:07;;;;;;;;;;;24.10;99.90;;;;;;4974078;28;19910;-57
2022/09/28 04:54:32;;;;;;;;;;;24.10;99.90;;;;;;4974162;28;20261;-56
2022/09/28 04:56:58;;;;;;;;;;;24.00;99.90;;;;;;4973760;28;19912;-56
2022/09/28 04:59:24;;;;;;;;;;;24.00;99.90;;;;;;4973993;28;19906;-55
2022/09/28 05:01:51;;;;;;;;;;;24.00;99.90;;;;;;4973831;28;19957;-56
2022/09/28 05:04:17;;;;;;;;;;;24.00;99.90;;;;;;4973973;28;19933;-55
2022/09/28 05:06:42;;;;;;;;;;;23.90;99.90;;;;;;4973823;28;19930;-56
2022/09/28 05:09:08;;;;;;;;;;;23.90;99.90;;;;;;4973702;28;19907;-55
2022/09/28 05:11:34;;;;;;;;;;;23.90;99.90;;;;;;4973928;28;19928;-55
2022/09/28 05:13:59;;;;;;;;;;;23.90;99.90;;;;;;4973572;28;20360;-56
2022/09/28 05:16:25;;;;;;;;;;;23.80;99.90;;;;;;4973685;28;19910;-55
2022/09/28 05:18:54;;;;;;;;;;;23.90;99.90;;;;;;4971642;28;19914;-55
2022/09/28 05:21:20;;;;;;;;;;;23.90;99.90;;;;;;4973437;28;20312;-55
2022/09/28 05:23:46;;;;;;;;;;;23.90;99.90;;;;;;4973542;28;19910;-55
2022/09/28 05:26:12;;;;;;;;;;;23.90;99.90;;;;;;4973582;28;19953;-55
2022/09/28 05:28:37;;;;;;;;;;;24.00;99.90;;;;;;4973293;28;20358;-55
2022/09/28 05:31:04;;;;;;;;;;;24.00;99.90;;;;;;4973362;28;20076;-56
2022/09/28 05:33:30;;;;;;;;;;;24.00;99.90;;;;;;4973613;28;19912;-56
2022/09/28 05:35:56;;;;;;;;;;;23.90;99.90;;;;;;4973468;28;19910;-56
2022/09/28 05:38:21;;;;;;;;;;;24.00;99.90;;;;;;4973385;28;19906;-56
2022/09/28 05:40:47;;;;;;;;;;;24.00;99.90;;;;;;4972971;28;20373;-56
2022/09/28 05:43:13;;;;;;;;;;;23.90;99.90;;;;;;4973369;28;19906;-56
2022/09/28 05:45:38;;;;;;;;;;;24.00;99.90;;;;;;4973232;28;19906;-56
2022/09/28 05:48:04;;;;;;;;;;;23.90;99.90;;;;;;4973083;28;19906;-56
2022/09/28 05:50:29;;;;;;;;;;;23.90;99.90;;;;;;4971879;28;20377;-57
2022/09/28 05:52:58;;;;;;;;;;;23.80;99.90;;;;;;4973174;28;19913;-56
2022/09/28 05:55:24;;;;;;;;;;;23.80;99.90;;;;;;4973007;28;19906;-56
2022/09/28 05:57:49;;;;;;;;;;;23.70;99.90;;;;;;4973123;28;19928;-56
2022/09/28 06:00:15;;;;;;;;;;;23.70;99.90;;;;;;4972744;28;19918;-56
2022/09/28 06:02:41;;;;;;;;;;;23.70;99.90;;;;;;4973068;28;19906;-57
2022/09/28 06:05:06;;;;;;;;;;;23.70;99.90;;;;;;4972792;28;19906;-57
2022/09/28 06:07:32;;;;;;;;;;;23.70;99.90;;;;;;4972828;28;19913;-57
2022/09/28 06:09:58;;;;;;;;;;;23.70;99.90;;;;;;4973126;28;19910;-56
2022/09/28 06:12:24;;;;;;;;;;;23.70;99.90;;;;;;4972855;28;19906;-55
2022/09/28 06:14:50;;;;;;;;;;;23.80;99.90;;;;;;4972615;28;19938;-55
2022/09/28 06:17:15;;;;;;;;;;;23.80;99.90;;;;;;4972600;28;19906;-56
2022/09/28 06:19:41;;;;;;;;;;;23.80;99.90;;;;;;4972768;28;20036;-56
2022/09/28 06:22:07;;;;;;;;;;;23.80;99.90;;;;;;4972591;28;19925;-56
2022/09/28 06:24:33;;;;;;;;;;;23.80;99.90;;;;;;4972773;28;20314;-56
2022/09/28 06:26:58;;;;;;;;;;;23.80;99.90;;;;;;4972844;28;19906;-57
2022/09/28 06:29:24;;;;;;;;;;;23.80;99.90;;;;;;4974100;28;19953;-57
2022/09/28 06:31:50;;;;;;;;;;;23.80;99.90;;;;;;4976317;28;19968;-56
2022/09/28 06:34:16;;;;;;;;;;;23.80;99.90;;;;;;4976542;28;19964;-56
2022/09/28 06:36:41;;;;;;;;;;;23.80;99.90;;;;;;4976246;28;20362;-55
2022/09/28 06:39:07;;;;;;;;;;;23.80;99.90;;;;;;4976441;28;19906;-57
2022/09/28 06:41:32;;;;;;;;;;;23.80;99.90;;;;;;4976397;28;19957;-56
2022/09/28 06:43:58;;;;;;;;;;;23.80;99.90;;;;;;4976641;28;19913;-56
2022/09/28 06:46:24;;;;;;;;;;;23.80;99.90;;;;;;4976268;28;20005;-56
2022/09/28 06:48:49;;;;;;;;;;;23.80;99.90;;;;;;4976036;28;19906;-56
2022/09/28 06:51:15;;;;;;;;;;;23.80;99.90;;;;;;4976139;28;19917;-57
2022/09/28 06:53:41;;;;;;;;;;;23.80;99.90;;;;;;4976160;28;20306;-57
2022/09/28 06:56:09;;;;;;;;;;;23.90;99.90;;;;;;4976045;28;19910;-56
2022/09/28 06:58:35;;;;;;;;;;;23.90;99.90;;;;;;4976119;28;20004;-56
2022/09/28 07:01:02;;;;;;;;;;;23.90;99.90;;;;;;4975939;28;20425;-56
2022/09/28 07:03:28;;;;;;;;;;;23.90;99.90;;;;;;4975935;28;20001;-56
2022/09/28 07:05:54;;;;;;;;;;;24.00;99.90;;;;;;4976044;28;20527;-56
2022/09/28 07:08:24;;;;;;;;;;;24.00;99.90;;;;;;4976018;28;19913;-56
2022/09/28 07:10:55;;;;;;;;;;;24.10;99.90;;;;;;4975802;28;19913;-58
2022/09/28 07:13:22;;;;;;;;;;;24.10;99.90;;;;;;4974398;28;19906;-56
2022/09/28 07:15:48;;;;;;;;;;;24.10;99.90;;;;;;4975619;28;20369;-56
2022/09/28 07:18:13;;;;;;;;;;;24.20;99.90;;;;;;4974447;28;19961;-56
2022/09/28 07:20:39;;;;;;;;;;;24.30;99.90;;;;;;4975537;28;19996;-57
2022/09/28 07:23:06;;;;;;;;;;;24.20;99.90;;;;;;4975812;28;19912;-56
2022/09/28 07:25:35;;;;;;;;;;;24.30;99.90;;;;;;4975729;28;20329;-56
2022/09/28 07:28:02;;;;;;;;;;;24.30;99.90;;;;;;4975591;28;19906;-57
2022/09/28 07:30:31;;;;;;;;;;;24.30;99.90;;;;;;4975393;28;19946;-55
2022/09/28 07:33:01;;;;;;;;;;;24.30;99.90;;;;;;4975444;28;19906;-56
2022/09/28 07:35:27;;;;;;;;;;;24.30;99.90;;;;;;4975287;28;20289;-56
2022/09/28 07:38:02;;;;;;;;;;;24.30;99.90;;;;;;4975238;28;19906;-57
2022/09/28 07:43:12;;;;;;;;;;;24.30;99.90;;;;;;4975231;28;20001;-56
2022/09/28 07:45:38;;;;;;;;;;;24.40;99.90;;;;;;4975169;28;19997;-57
2022/09/28 07:48:04;;;;;;;;;;;24.40;99.90;;;;;;4975370;28;19906;-57
2022/09/28 07:50:30;;;;;;;;;;;24.40;99.90;;;;;;4975040;28;19949;-56
2022/09/28 07:52:56;;;;;;;;;;;24.40;99.90;;;;;;4974909;28;20326;-58
2022/09/28 07:55:22;;;;;;;;;;;24.50;99.90;;;;;;4974975;28;20004;-58
2022/09/28 07:57:54;;;;;;;;;;;24.50;99.90;;;;;;4975075;28;19948;-57
2022/09/28 08:00:20;;;;;;;;;;;24.50;99.90;;;;;;4974566;28;20385;-57
2022/09/28 08:02:47;;;;;;;;;;;24.60;99.90;;;;;;4974773;28;19921;-57
2022/09/28 08:05:12;;;;;;;;;;;24.60;99.90;;;;;;4974712;28;19902;-56
2022/09/28 08:07:38;;;;;;;;;;;24.60;99.90;;;;;;4974790;28;20060;-57
2022/09/28 08:10:04;;;;;;;;;;;24.70;99.90;;;;;;4975032;28;19906;-56
2022/09/28 08:12:30;;;;;;;;;;;24.70;99.90;;;;;;4974603;28;19909;-56
2022/09/28 08:14:55;;;;;;;;;;;24.70;99.90;;;;;;4974425;28;20246;-56
2022/09/28 08:17:21;;;;;;;;;;;24.80;99.90;;;;;;4974651;28;19997;-55
2022/09/28 08:22:32;;;;;;;;;;;24.90;99.90;;;;;;4982927;28;20417;-56
2022/09/28 08:24:58;;;;;;;;;;;24.90;99.90;;;;;;4974483;28;19914;-56
2022/09/28 08:27:23;;;;;;;;;;;25.00;99.90;;;;;;4973125;28;19906;-55
2022/09/28 08:29:50;;;;;;;;;;;25.10;99.90;;;;;;4974234;28;19913;-56
2022/09/28 08:32:16;;;;;;;;;;;25.10;99.90;;;;;;4974478;28;19976;-56
2022/09/28 08:34:42;;;;;;;;;;;25.10;99.90;;;;;;4974324;28;19906;-55
2022/09/28 08:37:11;;;;;;;;;;;25.20;99.90;;;;;;4974309;28;19906;-56
2022/09/28 08:39:36;;;;;;;;;;;25.20;99.90;;;;;;4974228;28;20318;-56
2022/09/28 08:42:14;;;;;;;;;;;25.20;99.90;;;;;;4973986;28;19972;-56
2022/09/28 08:45:06;;;;;;;;;;;25.20;99.90;;;;;;4973993;28;19914;-56
2022/09/28 08:51:05;;;;;;;;;;;25.30;99.90;;;;;;4974166;28;19925;-55
2022/09/28 08:53:44;;;;;;;;;;;25.30;99.90;;;;;;4977608;28;20342;-56
2022/09/28 08:56:13;;;;;;;;;;;25.40;99.90;;;;;;4973791;28;19941;-56
2022/09/28 08:58:42;;;;;;;;;;;25.50;99.90;;;;;;4974057;28;19912;-56
2022/09/28 09:01:12;;;;;;;;;;;25.50;99.90;;;;;;4973685;28;19965;-56
2022/09/28 09:03:40;;;;;;;;;;;25.60;99.90;;;;;;4972559;28;19960;-56
2022/09/28 09:06:25;;;;;;;;;;;25.60;99.90;;;;;;4973767;28;19933;-55
2022/09/28 09:09:03;;;;;;;;;;;25.60;99.90;;;;;;4972403;28;20374;-55
2022/09/28 09:11:51;;;;;;;;;;;25.60;99.90;;;;;;4973732;28;19906;-56
2022/09/28 09:14:26;;;;;;;;;;;25.60;99.90;;;;;;4973705;28;19910;-55
2022/09/28 09:16:58;;;;;;;;;;;25.70;99.90;;;;;;4973399;28;19917;-55
2022/09/28 09:19:34;;;;;;;;;;;25.70;99.90;;;;;;4973391;28;19906;-55
2022/09/28 09:22:10;;;;;;;;;;;25.70;99.90;;;;;;4973253;28;20024;-55
2022/09/28 09:24:46;;;;;;;;;;;25.70;99.90;;;;;;4973369;28;19909;-55
2022/09/28 09:27:31;;;;;;;;;;;25.70;99.90;;;;;;4973423;28;19906;-55
2022/09/28 09:30:03;;;;;;;;;;;25.70;99.90;;;;;;4973105;28;19956;-55
2022/09/28 09:32:40;;;;;;;;;;;25.70;99.90;;;;;;4973052;28;19913;-56
2022/09/28 09:35:17;;;;;;;;;;;25.70;99.90;;;;;;4972846;28;20358;-55
2022/09/28 09:37:55;;;;;;;;;;;25.70;99.90;;;;;;4973085;28;19913;-55
2022/09/28 09:40:44;;;;;;;;;;;25.60;99.90;;;;;;4972942;28;20422;-58
2022/09/28 09:43:09;;;;;;;;;;;25.70;99.90;;;;;;4973011;28;19913;-55
2022/09/28 09:45:41;;;;;;;;;;;25.70;99.90;;;;;;4972827;28;19906;-56
2022/09/28 09:48:20;;;;;;;;;;;25.70;99.90;;;;;;4973015;28;19941;-56
2022/09/28 09:50:51;;;;;;;;;;;25.70;99.90;;;;;;4972856;28;19917;-57
2022/09/28 09:53:20;;;;;;;;;;;25.70;99.90;;;;;;4972797;28;19906;-57
2022/09/28 09:55:49;;;;;;;;;;;25.80;99.90;;;;;;4972669;28;19917;-57
2022/09/28 09:58:14;;;;;;;;;;;25.80;99.90;;;;;;4973036;28;19906;-57
2022/09/28 10:00:42;;;;;;;;;;;25.80;99.90;;;;;;4972689;28;20018;-56
2022/09/28 10:03:15;;;;;;;;;;;25.80;99.90;;;;;;4972753;28;19906;-55
2022/09/28 10:05:42;;;;;;;;;;;25.80;99.90;;;;;;4972773;28;19913;-56
2022/09/28 10:08:08;;;;;;;;;;;25.90;99.90;;;;;;4972757;28;19910;-57
2022/09/28 10:10:35;;;;;;;;;;;25.90;99.90;;;;;;4972885;28;19910;-57
2022/09/28 10:13:02;;;;;;;;;;;25.90;99.90;;;;;;4972757;28;19969;-57
2022/09/28 10:15:29;;;;;;;;;;;26.00;99.90;;;;;;4972686;28;19956;-57
2022/09/28 10:17:56;;;;;;;;;;;26.00;99.90;;;;;;4972627;28;19906;-60
2022/09/28 10:20:22;;;;;;;;;;;26.10;99.90;;;;;;4971256;28;20005;-58
2022/09/28 10:22:49;;;;;;;;;;;26.10;99.90;;;;;;4972540;28;19973;-57
2022/09/28 10:25:16;;;;;;;;;;;26.20;99.90;;;;;;4972588;28;19934;-57
2022/09/28 10:27:46;;;;;;;;;;;26.20;99.90;;;;;;4972816;28;19906;-58
2022/09/28 10:30:15;;;;;;;;;;;26.30;99.90;;;;;;4971435;28;20005;-58
2022/09/28 10:32:44;;;;;;;;;;;26.30;99.90;;;;;;4972687;28;19935;-58
2022/09/28 10:35:25;;;;;;;;;;;26.40;99.90;;;;;;4972753;28;19906;-57
2022/09/28 10:38:10;;;;;;;;;;;26.50;99.90;;;;;;4972342;28;20362;-57
2022/09/28 10:40:38;;;;;;;;;;;26.50;99.90;;;;;;4972240;28;20289;-59
2022/09/28 10:43:05;;;;;;;;;;;26.60;99.90;;;;;;4972413;28;19929;-59
2022/09/28 10:45:35;;;;;;;;;;;26.60;99.90;;;;;;4972221;28;20012;-57
2022/09/28 10:48:04;;;;;;;;;;;26.60;99.90;;;;;;4964139;28;19917;-59
2022/09/28 10:50:29;;;;;;;;;;;26.70;99.90;;;;;;4952993;28;19906;-58
2022/09/28 10:53:09;;;;;;;;;;;26.70;99.90;;;;;;4952858;28;19910;-58
2022/09/28 10:55:35;;;;;;;;;;;26.80;99.90;;;;;;4970554;28;19910;-56
2022/09/28 10:58:21;;;;;;;;;;;26.80;99.90;;;;;;4969290;28;20365;-60
2022/09/28 11:00:48;;;;;;;;;;;26.90;99.90;;;;;;4970812;28;19922;-61
2022/09/28 11:03:17;;;;;;;;;;;26.90;99.90;;;;;;4971979;28;19906;-59
2022/09/28 11:05:51;;;;;;;;;;;26.90;99.90;;;;;;4972035;28;20413;-56
2022/09/28 11:08:20;;;;;;;;;;;26.90;99.90;;;;;;4972485;28;19953;-55
2022/09/28 11:10:46;;;;;;;;;;;27.00;99.90;;;;;;4970010;28;19914;-58
2022/09/28 11:13:12;;;;;;;;;;;27.00;99.90;;;;;;4967917;28;20247;-56
2022/09/28 11:15:41;;;;;;;;;;;27.00;99.90;;;;;;4971549;28;19906;-56
2022/09/28 11:18:30;;;;;;;;;;;27.00;99.90;;;;;;4973741;28;19917;-57
2022/09/28 11:21:28;;;;;;;;;;;27.10;99.90;;;;;;4973548;28;19918;-56
2022/09/28 11:24:00;;;;;;;;;;;27.10;99.90;;;;;;4965339;28;19906;-58
2022/09/28 11:26:26;;;;;;;;;;;27.20;99.90;;;;;;4956717;28;20009;-58
2022/09/28 11:28:52;;;;;;;;;;;27.20;99.90;;;;;;4956303;28;19925;-59
2022/09/28 11:31:25;;;;;;;;;;;27.30;99.90;;;;;;4967120;28;19942;-57
2022/09/28 11:34:00;;;;;;;;;;;27.30;99.90;;;;;;4959241;28;20366;-56
2022/09/28 11:36:44;;;;;;;;;;;27.40;99.90;;;;;;4958889;28;19907;-55
2022/09/28 11:39:10;;;;;;;;;;;27.40;99.90;;;;;;4958562;28;19918;-59
2022/09/28 11:41:42;;;;;;;;;;;27.40;99.90;;;;;;4961753;28;19922;-56
2022/09/28 11:44:14;;;;;;;;;;;27.40;99.90;;;;;;4959785;28;19910;-59
2022/09/28 11:46:49;;;;;;;;;;;27.50;99.90;;;;;;4971334;28;19902;-56
2022/09/28 11:49:14;;;;;;;;;;;27.50;99.90;;;;;;4971439;28;20358;-58
2022/09/28 11:51:42;;;;;;;;;;;27.50;99.90;;;;;;4959261;28;19906;-55
2022/09/28 11:54:22;;;;;;;;;;;27.50;99.90;;;;;;4955028;28;19906;-55
2022/09/28 11:56:49;;;;;;;;;;;27.50;99.90;;;;;;4966689;28;19917;-53
2022/09/28 11:59:19;;;;;;;;;;;27.50;99.90;;;;;;4974114;28;19917;-59
2022/09/28 12:01:51;;;;;;;;;;;27.60;99.90;;;;;;4974869;28;19918;-60
2022/09/28 12:04:39;;;;;;;;;;;27.60;99.90;;;;;;4974408;28;19906;-55
2022/09/28 12:07:12;;;;;;;;;;;27.50;99.90;;;;;;4974622;28;19906;-65
2022/09/28 12:09:58;;;;;;;;;;;27.50;99.90;;;;;;4974538;28;20380;-54
2022/09/28 12:12:24;;;;;;;;;;;27.60;99.90;;;;;;4974007;28;20000;-59
2022/09/28 12:14:53;;;;;;;;;;;27.60;99.90;;;;;;4974348;28;20357;-62
2022/09/28 12:17:48;;;;;;;;;;;27.60;99.90;;;;;;4974389;28;19906;-59
2022/09/28 12:20:13;;;;;;;;;;;27.60;99.90;;;;;;4977846;28;19913;-58
2022/09/28 12:23:02;;;;;;;;;;;27.60;99.90;;;;;;4973943;28;19913;-60
2022/09/28 12:25:32;;;;;;;;;;;27.60;99.90;;;;;;4971637;28;19922;-60
2022/09/28 12:28:04;;;;;;;;;;;27.70;99.90;;;;;;4971677;28;19913;-57
2022/09/28 12:30:33;;;;;;;;;;;27.70;99.90;;;;;;4959672;28;20378;-60
2022/09/28 12:32:58;;;;;;;;;;;27.70;99.90;;;;;;4971620;28;20256;-57
2022/09/28 12:35:34;;;;;;;;;;;27.70;99.90;;;;;;4971848;28;20255;-57
2022/09/28 12:38:15;;;;;;;;;;;27.70;99.90;;;;;;4962150;28;19965;-58
2022/09/28 12:40:50;;;;;;;;;;;27.70;99.90;;;;;;4953655;28;19925;-59
2022/09/28 12:43:18;;;;;;;;;;;27.70;99.90;;;;;;4968039;28;19957;-60
2022/09/28 12:46:02;;;;;;;;;;;27.60;99.90;;;;;;4968791;28;19906;-57
2022/09/28 12:48:37;;;;;;;;;;;27.60;99.90;;;;;;4966972;28;20325;-57
2022/09/28 12:51:06;;;;;;;;;;;27.70;99.90;;;;;;4955970;28;19913;-62
2022/09/28 12:53:32;;;;;;;;;;;27.80;99.90;;;;;;4954041;28;20306;-58
2022/09/28 12:56:02;;;;;;;;;;;27.80;99.90;;;;;;4954135;28;19906;-61
2022/09/28 12:58:43;;;;;;;;;;;27.80;99.90;;;;;;4960194;28;19957;-58
2022/09/28 13:01:17;;;;;;;;;;;27.80;99.90;;;;;;4970131;28;19918;-58
2022/09/28 13:04:08;;;;;;;;;;;27.80;99.90;;;;;;4969135;28;19906;-57
2022/09/28 13:06:40;;;;;;;;;;;27.70;99.90;;;;;;4973122;28;19913;-55
2022/09/28 13:09:12;;;;;;;;;;;27.70;99.90;;;;;;4966391;28;19920;-57
2022/09/28 13:11:39;;;;;;;;;;;27.70;99.90;;;;;;4969358;28;19914;-56
2022/09/28 13:14:19;;;;;;;;;;;27.70;99.90;;;;;;4967299;28;19917;-58
2022/09/28 13:16:57;;;;;;;;;;;27.60;99.90;;;;;;4967991;28;20476;-56
2022/09/28 13:19:35;;;;;;;;;;;27.60;99.90;;;;;;4959151;28;19910;-56
2022/09/28 13:22:03;;;;;;;;;;;27.60;99.90;;;;;;4972767;28;20208;-58
2022/09/28 13:24:34;;;;;;;;;;;27.60;99.90;;;;;;4973289;28;19992;-57
2022/09/28 13:27:08;;;;;;;;;;;27.50;99.90;;;;;;4968827;28;19906;-57
2022/09/28 13:29:33;;;;;;;;;;;27.50;99.90;;;;;;4973021;28;19910;-58
2022/09/28 13:32:00;;;;;;;;;;;27.50;99.90;;;;;;4972906;28;20420;-58
2022/09/28 13:34:31;;;;;;;;;;;27.50;99.90;;;;;;4968930;28;19910;-56
2022/09/28 13:37:08;;;;;;;;;;;27.40;99.90;;;;;;4970133;28;20428;-56
2022/09/28 13:39:45;;;;;;;;;;;27.50;99.90;;;;;;4972117;28;20072;-56
2022/09/28 13:42:22;;;;;;;;;;;27.40;99.90;;;;;;4972818;28;19958;-57
2022/09/28 13:45:08;;;;;;;;;;;27.50;99.90;;;;;;4972836;28;19989;-57
2022/09/28 13:48:00;;;;;;;;;;;27.50;99.90;;;;;;4973013;28;20020;-55
2022/09/28 13:50:28;;;;;;;;;;;27.60;99.90;;;;;;4970990;28;19906;-56
2022/09/28 13:53:10;;;;;;;;;;;27.60;99.90;;;;;;4972566;28;20262;-56
2022/09/28 13:55:54;;;;;;;;;;;27.60;99.90;;;;;;4972755;28;19914;-56
2022/09/28 13:58:40;;;;;;;;;;;27.70;99.90;;;;;;4973064;28;19946;-57
2022/09/28 14:01:06;;;;;;;;;;;27.60;99.90;;;;;;4972399;28;19926;-58
2022/09/28 14:03:43;;;;;;;;;;;27.60;99.90;;;;;;4972630;28;20487;-58
2022/09/28 14:06:24;;;;;;;;;;;27.60;99.90;;;;;;4972734;28;19910;-58
2022/09/28 14:09:09;;;;;;;;;;;27.50;99.90;;;;;;4970366;28;19906;-58
2022/09/28 14:11:34;;;;;;;;;;;27.50;99.90;;;;;;4971124;28;19961;-59
2022/09/28 14:14:00;;;;;;;;;;;27.40;99.90;;;;;;4971721;28;20010;-57
2022/09/28 14:16:27;;;;;;;;;;;27.30;99.90;;;;;;4972815;28;20020;-56
2022/09/28 14:19:01;;;;;;;;;;;27.30;99.90;;;;;;4972867;28;20020;-56
2022/09/28 14:21:45;;;;;;;;;;;27.30;99.90;;;;;;4972869;28;19918;-57
2022/09/28 14:24:32;;;;;;;;;;;27.30;99.90;;;;;;4971173;28;19906;-56
2022/09/28 14:27:17;;;;;;;;;;;27.30;99.90;;;;;;4972576;28;19910;-57
2022/09/28 14:29:43;;;;;;;;;;;27.40;99.90;;;;;;4970323;28;19909;-56
2022/09/28 14:32:08;;;;;;;;;;;27.40;99.90;;;;;;4971521;28;20346;-57
2022/09/28 14:34:35;;;;;;;;;;;27.40;99.90;;;;;;4970678;28;19910;-59
2022/09/28 14:42:31;;;;;;;;;;;27.50;99.90;;;;;;4970718;28;20290;-56
2022/09/28 14:44:59;;;;;;;;;;;27.50;99.90;;;;;;4970235;28;19910;-57
2022/09/28 14:47:41;;;;;;;;;;;27.50;99.90;;;;;;4970721;28;19933;-59
2022/09/28 14:50:36;;;;;;;;;;;27.50;99.90;;;;;;4973420;28;19961;-55